Time;durP1;ratioP1;P1;durP2;ratioP2;P2;SDS_P1;SDS_P2;PMS_P1;PMS_P2;Temp;Humidity;BMP_temperature;BMP_pressure;BME280_temperature;BME280_humidity;BME280_pressure;Samples;Min_cycle;Max_cycle;Signal;HPM_P1;HPM_P2
2021/04/05 00:02:38;;;;;;;4.64;3.08;;;;;;;2.78;70.80;99263.78;2039392;77;20341;-64
2021/04/05 00:05:39;;;;;;;4.71;2.56;;;;;;;2.77;71.31;99261.19;2040855;79;20958;-64
2021/04/05 00:08:41;;;;;;;7.00;3.01;;;;;;;2.72;71.28;99271.34;2040906;79;20296;-64
2021/04/05 00:11:43;;;;;;;6.47;3.45;;;;;;;2.69;71.70;99272.13;2040644;79;20327;-64
2021/04/05 00:14:46;;;;;;;9.79;3.46;;;;;;;2.67;71.53;99276.34;2040450;79;20367;-64
2021/04/05 00:17:48;;;;;;;6.10;2.56;;;;;;;2.68;71.66;99274.63;2039720;77;21006;-64
2021/04/05 00:20:54;;;;;;;10.23;4.26;;;;;;;2.69;72.47;99273.81;2040927;79;20888;-64
2021/04/05 00:23:56;;;;;;;8.99;2.99;;;;;;;2.69;72.39;99272.13;2040511;79;20332;-64
2021/04/05 00:26:57;;;;;;;7.51;3.34;;;;;;;2.68;72.17;99266.94;2043404;79;20345;-64
2021/04/05 00:29:59;;;;;;;9.18;3.33;;;;;;;2.68;72.17;99262.69;2040030;79;20768;-64
2021/04/05 00:33:01;;;;;;;7.04;3.05;;;;;;;2.60;72.04;99242.84;2039280;76;20678;-64
2021/04/05 00:36:03;;;;;;;7.01;3.11;;;;;;;2.58;71.89;99231.69;2040132;79;20308;-64
2021/04/05 00:39:06;;;;;;;6.15;3.54;;;;;;;2.51;71.86;99243.47;2039945;79;21219;-65
2021/04/05 00:42:08;;;;;;;10.39;4.39;;;;;;;2.51;72.19;99247.72;2040318;79;20814;-64
2021/04/05 00:45:11;;;;;;;8.31;3.28;;;;;;;2.45;71.96;99245.00;2039593;79;20325;-64
2021/04/05 00:48:15;;;;;;;7.03;3.19;;;;;;;2.43;71.62;99235.59;2042013;79;20333;-64
2021/04/05 00:51:20;;;;;;;7.51;3.86;;;;;;;2.38;71.91;99221.81;2039944;79;20889;-63
2021/04/05 00:54:22;;;;;;;7.43;3.38;;;;;;;2.35;72.27;99197.81;2040361;79;20388;-63
2021/04/05 00:57:23;;;;;;;8.35;3.74;;;;;;;2.32;72.53;99188.31;2039694;79;20352;-63
2021/04/05 01:00:39;;;;;;;10.05;3.89;;;;;;;2.26;72.72;99188.19;2039292;76;25633;-63
2021/04/05 01:03:44;;;;;;;8.14;3.50;;;;;;;2.26;72.75;99182.19;2039634;79;20376;-64
2021/04/05 01:06:46;;;;;;;7.80;3.33;;;;;;;2.28;72.76;99196.78;2040239;79;20409;-64
2021/04/05 01:09:48;;;;;;;10.07;3.21;;;;;;;2.31;72.75;99186.59;2040381;79;20341;-63
2021/04/05 01:12:51;;;;;;;8.56;3.45;;;;;;;2.24;72.73;99183.84;2040000;79;20766;-63
2021/04/05 01:15:52;;;;;;;7.06;3.24;;;;;;;2.20;72.77;99172.66;2039177;77;21092;-63
2021/04/05 01:18:56;;;;;;;7.39;3.28;;;;;;;2.19;73.23;99164.94;2039997;79;20449;-63
2021/04/05 01:21:57;;;;;;;8.13;3.04;;;;;;;2.13;73.88;99169.06;2039999;79;20316;-64
2021/04/05 01:25:00;;;;;;;10.09;3.55;;;;;;;2.18;73.82;99155.53;2039845;79;20852;-63
2021/04/05 01:28:01;;;;;;;6.56;3.25;;;;;;;2.17;74.21;99149.56;2039705;79;20376;-63
2021/04/05 01:31:03;;;;;;;7.01;3.38;;;;;;;2.15;74.30;99135.81;2039598;76;21034;-63
2021/04/05 01:34:05;;;;;;;6.29;3.24;;;;;;;2.09;73.97;99139.09;2039727;79;20337;-64
2021/04/05 01:37:07;;;;;;;7.21;3.19;;;;;;;2.08;73.96;99132.25;2039668;79;20329;-63
2021/04/05 01:40:09;;;;;;;8.45;3.75;;;;;;;2.07;73.89;99129.66;2040192;79;20789;-63
2021/04/05 01:43:11;;;;;;;7.30;3.46;;;;;;;2.05;73.58;99134.75;2040362;79;20325;-63
2021/04/05 01:46:16;;;;;;;9.02;3.61;;;;;;;2.00;73.56;99131.19;2039343;76;21576;-64
2021/04/05 01:49:18;;;;;;;6.93;3.64;;;;;;;1.91;74.14;99137.75;2040784;79;20329;-64
2021/04/05 01:52:20;;;;;;;6.63;3.51;;;;;;;1.86;74.01;99132.53;2040031;79;20328;-64
2021/04/05 01:55:22;;;;;;;9.02;3.30;;;;;;;1.83;74.14;99132.47;2040626;79;20731;-64
2021/04/05 01:58:24;;;;;;;8.68;3.30;;;;;;;1.81;74.40;99127.31;2040894;79;20307;-64
2021/04/05 02:01:31;;;;;;;8.06;2.76;;;;;;;1.77;74.55;99122.03;2040474;76;21060;-64
2021/04/05 02:04:35;;;;;;;6.94;3.08;;;;;;;1.78;74.55;99124.63;2042628;79;20292;-63
2021/04/05 02:07:38;;;;;;;6.24;2.75;;;;;;;1.77;74.58;99116.94;2042616;79;20376;-63
2021/04/05 02:10:40;;;;;;;5.03;3.10;;;;;;;1.74;74.54;99102.34;2042404;79;20307;-64
2021/04/05 02:13:47;;;;;;;8.34;3.41;;;;;;;1.71;74.36;99099.72;2042462;79;20352;-63
2021/04/05 02:16:49;;;;;;;5.97;3.13;;;;;;;1.71;74.40;99096.31;2040981;77;20601;-64
2021/04/05 02:19:50;;;;;;;5.68;3.40;;;;;;;1.69;74.68;99086.03;2042596;79;20351;-63
2021/04/05 02:22:52;;;;;;;7.53;3.36;;;;;;;1.66;74.98;99078.28;2042318;79;20427;-63
2021/04/05 02:26:33;;;;;;;5.20;2.81;;;;;;;1.67;74.88;99080.00;2042080;79;20360;-63
2021/04/05 02:29:28;;;;;;;6.41;2.97;;;;;;;1.67;75.28;99069.78;2042150;79;20325;-63
2021/04/05 02:32:30;;;;;;;7.63;3.54;;;;;;;1.66;75.65;99062.06;2041194;77;22233;-63
2021/04/05 02:35:33;;;;;;;6.56;3.49;;;;;;;1.63;75.86;99062.84;2041861;79;20315;-63
2021/04/05 02:38:37;;;;;;;5.81;3.14;;;;;;;1.61;75.82;99068.72;2041992;79;20329;-63
2021/04/05 02:41:42;;;;;;;7.57;3.70;;;;;;;1.63;75.73;99060.28;2041870;79;20339;-63
2021/04/05 02:44:45;;;;;;;8.11;3.76;;;;;;;1.65;76.13;99057.78;2042374;79;20344;-63
2021/04/05 02:47:49;;;;;;;9.90;3.83;;;;;;;1.68;76.20;99048.47;2041582;77;21582;-64
2021/04/05 02:50:51;;;;;;;6.93;3.71;;;;;;;1.60;76.58;99036.28;2041645;79;20299;-64
2021/04/05 02:54:00;;;;;;;10.01;4.20;;;;;;;1.55;76.54;99048.13;2042039;79;20333;-63
2021/04/05 02:57:02;;;;;;;9.88;3.90;;;;;;;1.52;76.41;99042.09;2042279;79;20443;-63
2021/04/05 03:00:10;;;;;;;5.10;3.10;;;;;;;1.55;76.43;99045.56;2041661;79;21094;-63
2021/04/05 03:03:12;;;;;;;7.99;3.76;;;;;;;1.51;76.57;99029.28;2040734;76;24153;-63
2021/04/05 03:06:17;;;;;;;6.82;4.38;;;;;;;1.50;76.50;99022.41;2040736;79;20320;-63
2021/04/05 03:09:19;;;;;;;9.39;4.34;;;;;;;1.49;76.85;99021.56;2040635;79;20319;-63
2021/04/05 03:12:21;;;;;;;9.90;4.32;;;;;;;1.56;77.21;99024.25;2040578;79;20921;-63
2021/04/05 03:15:24;;;;;;;8.68;4.40;;;;;;;1.61;77.76;99012.44;2038982;76;20837;-64
2021/04/05 03:18:27;;;;;;;10.05;4.34;;;;;;;1.70;77.64;99017.81;2041096;79;20333;-63
2021/04/05 03:21:31;;;;;;;9.75;4.28;;;;;;;1.70;77.43;99003.31;2040648;79;20319;-63
2021/04/05 03:24:36;;;;;;;9.75;4.60;;;;;;;1.71;77.32;99004.19;2040577;79;20339;-64
2021/04/05 03:27:37;;;;;;;10.06;4.61;;;;;;;1.71;77.17;98994.81;2041053;79;20328;-63
2021/04/05 03:30:50;;;;;;;11.49;4.39;;;;;;;1.73;76.98;98990.59;2039895;77;39046;-64
2021/04/05 03:34:04;;;;;;;11.05;5.05;;;;;;;1.71;76.64;98986.25;2040540;79;20331;-64
2021/04/05 03:37:13;;;;;;;7.04;4.20;;;;;;;1.63;76.74;98990.34;2040273;79;20296;-64
2021/04/05 03:40:15;;;;;;;11.91;4.55;;;;;;;1.61;76.61;98997.09;2040806;79;20325;-63
2021/04/05 03:43:29;;;;;;;12.38;4.86;;;;;;;1.57;76.99;98985.06;2040929;79;20205;-63
2021/04/05 03:46:37;;;;;;;10.02;5.59;;;;;;;1.47;77.32;98991.66;2039365;76;20323;-63
2021/04/05 03:49:50;;;;;;;12.54;6.68;;;;;;;1.49;77.54;98987.44;2040423;79;20341;-63
2021/04/05 03:53:10;;;;;;;11.44;5.25;;;;;;;1.52;77.75;98973.03;2040640;79;20351;-63
2021/04/05 03:56:15;;;;;;;10.88;6.07;;;;;;;1.56;77.65;98985.88;2040428;79;20362;-63
2021/04/05 03:59:40;;;;;;;10.69;5.88;;;;;;;1.57;77.86;98972.25;2040505;79;20335;-63
2021/04/05 04:02:46;;;;;;;11.85;6.04;;;;;;;1.62;77.80;98970.69;2039656;76;20611;-64
2021/04/05 04:05:55;;;;;;;12.59;6.60;;;;;;;1.65;77.96;98965.66;2040188;79;20303;-63
2021/04/05 04:08:58;;;;;;;;;;;;;;;1.70;77.67;98966.63;2040765;79;20707;-63
2021/04/05 04:12:01;;;;;;;10.19;5.81;;;;;;;1.72;77.71;98960.72;2040477;79;20067;-64
2021/04/05 04:15:05;;;;;;;11.38;6.21;;;;;;;1.76;77.45;98948.84;2039835;79;20357;-63
2021/04/05 04:18:07;;;;;;;13.31;7.18;;;;;;;1.79;77.65;98943.78;2039571;76;21123;-63
2021/04/05 04:21:10;;;;;;;15.10;7.10;;;;;;;1.85;77.51;98938.81;2040457;79;20311;-64
2021/04/05 04:24:12;;;;;;;16.61;7.15;;;;;;;1.88;77.61;98931.22;2040293;79;20347;-64
2021/04/05 04:27:17;;;;;;;14.38;7.46;;;;;;;1.92;77.75;98916.78;2040384;79;20400;-63
2021/04/05 04:30:32;;;;;;;14.23;7.03;;;;;;;1.94;77.93;98918.53;2039475;76;21415;-64
2021/04/05 04:33:34;;;;;;;13.55;7.19;;;;;;;1.92;78.05;98917.66;2040550;79;20452;-64
2021/04/05 04:36:36;;;;;;;13.02;7.55;;;;;;;1.90;78.38;98911.63;2040737;79;20310;-64
2021/04/05 04:39:38;;;;;;;14.16;6.75;;;;;;;1.94;78.40;98913.41;2040097;79;20339;-63
2021/04/05 04:42:40;;;;;;;13.43;7.82;;;;;;;2.00;78.45;98907.59;2040959;79;20311;-64
2021/04/05 04:45:42;;;;;;;13.40;6.68;;;;;;;2.06;78.52;98917.94;2038920;76;20788;-64
2021/04/05 04:48:44;;;;;;;13.15;6.61;;;;;;;2.11;78.44;98896.72;2040779;79;20331;-64
2021/04/05 04:51:46;;;;;;;13.54;7.04;;;;;;;2.16;78.25;98901.09;2040564;79;20303;-64
2021/04/05 04:54:47;;;;;;;15.75;8.15;;;;;;;2.19;78.35;98891.78;2040667;79;20351;-64
2021/04/05 04:57:54;;;;;;;17.67;8.79;;;;;;;2.24;78.41;98889.31;2040124;79;20283;-64
2021/04/05 05:00:56;;;;;;;17.10;9.27;;;;;;;2.29;78.42;98890.25;2039884;76;21129;-65
2021/04/05 05:04:04;;;;;;;16.89;9.40;;;;;;;2.38;78.52;98872.53;2040242;79;20311;-64
2021/04/05 05:07:07;;;;;;;20.98;10.01;;;;;;;2.40;78.38;98879.41;2043334;79;20303;-64
2021/04/05 05:10:11;;;;;;;19.35;9.66;;;;;;;2.39;78.43;98892.19;2040062;79;20307;-64
2021/04/05 05:13:14;;;;;;;14.55;9.24;;;;;;;2.46;78.21;98896.59;2040242;79;20303;-64
2021/04/05 05:16:15;;;;;;;17.13;9.57;;;;;;;2.47;78.01;98907.69;2039492;77;20842;-63
2021/04/05 05:19:18;;;;;;;17.27;9.70;;;;;;;2.46;78.27;98909.38;2039708;79;20494;-63
2021/04/05 05:22:21;;;;;;;15.73;9.38;;;;;;;2.50;79.04;98900.06;2040573;79;20349;-65
2021/04/05 05:25:24;;;;;;;18.11;10.77;;;;;;;2.53;78.78;98883.06;2039870;79;20329;-63
2021/04/05 05:28:27;;;;;;;18.69;9.96;;;;;;;2.60;79.01;98874.66;2040427;79;20341;-65
2021/04/05 05:31:29;;;;;;;19.34;10.16;;;;;;;2.67;79.25;98879.06;2039131;77;20348;-64
2021/04/05 05:34:31;;;;;;;18.80;10.85;;;;;;;2.73;79.63;98870.63;2040422;79;21268;-63
2021/04/05 05:37:33;;;;;;;18.55;11.18;;;;;;;2.81;79.44;98861.38;2040442;79;20407;-64
2021/04/05 05:40:36;;;;;;;20.66;11.44;;;;;;;2.96;79.90;98864.19;2040459;79;20315;-64
2021/04/05 05:43:45;;;;;;;20.59;11.69;;;;;;;3.10;80.08;98859.31;2039723;79;20349;-64
2021/04/05 05:46:57;;;;;;;19.05;12.00;;;;;;;3.27;80.57;98854.47;2040163;76;20402;-64
2021/04/05 05:50:37;;;;;;;20.09;11.36;;;;;;;3.42;80.40;98846.13;2040648;79;20320;-64
2021/04/05 05:54:12;;;;;;;20.27;12.01;;;;;;;3.55;80.02;98838.63;2040303;79;20819;-64
2021/04/05 05:57:21;;;;;;;20.77;11.32;;;;;;;3.73;79.80;98842.28;2039521;79;20312;-64
2021/04/05 06:00:28;;;;;;;21.55;12.25;;;;;;;3.85;79.37;98842.47;2039775;76;20715;-64
2021/04/05 06:03:52;;;;;;;21.11;12.09;;;;;;;3.94;79.09;98840.88;2039728;79;20180;-64
2021/04/05 06:07:03;;;;;;;18.52;11.99;;;;;;;4.04;78.76;98828.16;2040102;79;20389;-64
2021/04/05 06:10:08;;;;;;;20.71;11.59;;;;;;;4.17;78.29;98830.03;2040146;79;20316;-64
2021/04/05 06:13:21;;;;;;;22.36;13.45;;;;;;;4.29;77.91;98831.88;2040014;79;20303;-64
2021/04/05 06:16:29;;;;;;;18.23;11.60;;;;;;;4.38;77.57;98829.41;2039677;76;21988;-64
2021/04/05 06:19:58;;;;;;;23.30;12.26;;;;;;;4.48;77.13;98831.22;2040288;79;20343;-65
2021/04/05 06:23:15;;;;;;;21.51;11.31;;;;;;;4.55;76.62;98820.19;2039311;79;20311;-64
2021/04/05 06:26:38;;;;;;;17.86;12.04;;;;;;;4.65;76.31;98829.69;2040194;79;20316;-65
2021/04/05 06:29:58;;;;;;;19.01;12.26;;;;;;;4.72;75.86;98813.50;2040486;79;20315;-64
2021/04/05 06:33:36;;;;;;;27.09;11.94;;;;;;;4.80;75.66;98806.69;2028054;76;20461;-64
2021/04/05 06:37:12;;;;;;;22.65;11.95;;;;;;;4.90;75.54;98801.66;2028506;79;21255;-65
2021/04/05 06:40:19;;;;;;;19.51;11.02;;;;;;;5.06;75.00;98800.94;2028074;79;20347;-64
2021/04/05 06:43:46;;;;;;;19.86;12.10;;;;;;;5.23;74.30;98777.91;2028326;79;20314;-65
2021/04/05 06:47:13;;;;;;;19.90;11.85;;;;;;;5.37;74.13;98797.72;2030778;77;21188;-64
2021/04/05 06:50:31;;;;;;;21.38;11.75;;;;;;;5.43;73.40;98786.63;2034060;79;20444;-64
2021/04/05 06:53:50;;;;;;;15.89;10.96;;;;;;;5.50;72.44;98785.78;2033412;79;21042;-64
2021/04/05 06:57:29;;;;;;;21.51;14.17;;;;;;;5.69;72.14;98792.75;2033926;79;20602;-64
2021/04/05 07:00:49;;;;;;;16.77;11.51;;;;;;;5.80;71.39;98771.38;2033471;76;20225;-66
2021/04/05 07:04:11;;;;;;;21.81;11.18;;;;;;;5.99;71.66;98773.19;2039441;79;20198;-64
2021/04/05 07:07:45;;;;;;;23.05;12.79;;;;;;;6.35;71.78;98782.75;2038934;79;21113;-65
2021/04/05 07:11:02;;;;;;;21.44;12.00;;;;;;;6.50;70.39;98772.47;2039393;79;20316;-65
2021/04/05 07:14:26;;;;;;;23.24;12.71;;;;;;;6.70;69.65;98769.94;2038928;79;20337;-64
2021/04/05 07:17:40;;;;;;;20.40;11.60;;;;;;;6.87;69.23;98767.38;2034224;77;20382;-68
2021/04/05 07:20:56;;;;;;;19.67;11.51;;;;;;;6.90;67.78;98765.63;2033969;79;20333;-65
2021/04/05 07:24:19;;;;;;;26.45;16.55;;;;;;;6.96;67.77;98762.19;2033739;79;20320;-65
2021/04/05 07:27:49;;;;;;;22.66;12.80;;;;;;;6.93;67.49;98757.88;2034330;79;20826;-65
2021/04/05 07:31:08;;;;;;;18.41;13.13;;;;;;;6.95;67.26;98755.31;2035163;77;21017;-65
2021/04/05 07:34:20;;;;;;;22.84;13.52;;;;;;;6.92;67.19;98755.31;2040326;79;20292;-67
2021/04/05 07:37:52;;;;;;;22.21;13.45;;;;;;;7.09;67.06;98745.84;2041940;79;20325;-68
2021/04/05 07:41:23;;;;;;;22.96;11.74;;;;;;;7.36;66.49;98738.91;2040743;79;20325;-66
2021/04/05 07:44:36;;;;;;;23.27;12.59;;;;;;;7.64;65.92;98737.97;2040634;79;20192;-66
2021/04/05 07:47:59;;;;;;;18.59;11.91;;;;;;;7.93;64.50;98737.00;2037937;77;20316;-66
2021/04/05 07:51:10;;;;;;;17.05;11.73;;;;;;;8.08;63.20;98724.88;2037520;79;20585;-66
2021/04/05 07:54:15;;;;;;;21.88;11.90;;;;;;;8.16;62.56;98724.81;2037121;79;20227;-66
2021/04/05 07:57:28;;;;;;;22.19;12.10;;;;;;;8.30;62.22;98719.59;2037332;79;20904;-65
2021/04/05 08:00:51;;;;;;;21.41;11.75;;;;;;;8.53;62.46;98724.63;2036292;77;20228;-64
2021/04/05 08:04:15;;;;;;;18.58;11.07;;;;;;;8.47;60.83;98730.72;2037835;79;20196;-67
2021/04/05 08:07:30;;;;;;;19.75;10.14;;;;;;;8.51;61.01;98736.72;2037581;79;20558;-65
2021/04/05 08:10:37;;;;;;;18.67;10.71;;;;;;;8.48;60.96;98738.47;2037775;79;20235;-65
2021/04/05 08:13:48;;;;;;;20.91;11.26;;;;;;;8.43;61.30;98739.34;2037215;79;20172;-64
2021/04/05 08:16:59;;;;;;;17.23;10.06;;;;;;;8.30;60.98;98741.13;2039704;76;20299;-65
2021/04/05 08:20:16;;;;;;;15.54;9.82;;;;;;;8.19;61.15;98742.91;2042901;79;20180;-65
2021/04/05 08:23:39;;;;;;;18.08;9.41;;;;;;;8.12;61.96;98746.41;2042235;79;20349;-65
2021/04/05 08:26:53;;;;;;;16.94;9.71;;;;;;;8.05;62.19;98739.53;2042774;79;20224;-65
2021/04/05 08:30:07;;;;;;;22.59;9.80;;;;;;;7.98;62.55;98746.47;2043310;79;20597;-66
2021/04/05 08:33:39;;;;;;;16.76;8.73;;;;;;;7.87;63.12;98741.31;2037488;76;20722;-65
2021/04/05 08:36:50;;;;;;;18.26;9.45;;;;;;;7.79;63.33;98735.34;2037200;79;20169;-68
2021/04/05 08:40:20;;;;;;;14.70;8.81;;;;;;;7.74;63.55;98738.81;2037598;79;20744;-72
2021/04/05 08:43:43;;;;;;;19.98;9.96;;;;;;;7.65;63.70;98736.25;2040622;79;20548;-66
2021/04/05 08:46:48;;;;;;;15.88;8.32;;;;;;;7.52;64.04;98725.94;2039356;77;22653;-67
2021/04/05 08:50:34;;;;;;;;;;;;;;;;;;;;;
2021/04/05 08:54:09;;;;;;;18.08;9.46;;;;;;;7.28;64.38;98742.38;2042126;79;20807;-67
2021/04/05 08:57:33;;;;;;;17.61;9.13;;;;;;;7.16;64.86;98750.13;2041968;79;20196;-67
2021/04/05 09:00:40;;;;;;;13.88;8.21;;;;;;;7.10;65.21;98752.72;2038643;77;29129;-66
2021/04/05 09:03:46;;;;;;;15.28;9.61;;;;;;;6.98;65.61;98742.41;2036750;79;20209;-66
2021/04/05 09:07:18;;;;;;;16.13;9.01;;;;;;;6.93;66.01;98733.81;2037359;79;20165;-66
2021/04/05 09:10:24;;;;;;;19.05;8.52;;;;;;;6.92;66.37;98734.66;2037670;79;20768;-66
2021/04/05 09:13:32;;;;;;;14.54;8.45;;;;;;;6.92;66.48;98730.38;2036666;79;20312;-68
2021/04/05 09:16:56;;;;;;;15.26;8.32;;;;;;;6.89;66.51;98720.03;2037532;77;25876;-66
2021/04/05 09:20:14;;;;;;;18.64;9.04;;;;;;;6.84;66.33;98729.53;2040715;79;20295;-66
2021/04/05 09:23:42;;;;;;;14.81;8.15;;;;;;;6.70;66.73;98746.72;2040140;79;20345;-67
2021/04/05 09:27:25;;;;;;;18.47;8.27;;;;;;;6.71;67.22;98724.34;2044139;79;20821;-66
2021/04/05 09:30:58;;;;;;;13.57;7.91;;;;;;;6.72;67.63;98715.75;2037897;77;20336;-66
2021/04/05 09:34:37;;;;;;;18.40;8.56;;;;;;;6.80;67.63;98707.13;2038676;79;21640;-66
2021/04/05 09:37:57;;;;;;;12.84;7.15;;;;;;;6.88;67.09;98712.31;2039646;79;20780;-69
2021/04/05 09:41:24;;;;;;;14.23;6.72;;;;;;;6.93;67.19;98714.00;2039334;79;20315;-66
2021/04/05 09:44:44;;;;;;;13.51;7.24;;;;;;;6.92;66.58;98696.81;2038921;79;21288;-67
2021/04/05 09:48:16;;;;;;;10.73;5.90;;;;;;;6.97;66.73;98700.25;2033400;76;21627;-66
2021/04/05 09:51:37;;;;;;;15.23;7.03;;;;;;;7.14;66.50;98687.31;2033219;79;20518;-66
2021/04/05 09:54:51;;;;;;;14.88;6.35;;;;;;;7.37;66.07;98689.00;2032137;79;20729;-66
2021/04/05 09:58:07;;;;;;;11.86;7.13;;;;;;;7.50;65.22;98680.31;2031560;79;20177;-67
2021/04/05 10:01:15;;;;;;;9.74;5.84;;;;;;;7.49;64.78;98686.34;2031961;76;21057;-66
2021/04/05 10:04:22;;;;;;;10.38;6.30;;;;;;;7.54;64.87;98693.25;2032465;79;20191;-66
2021/04/05 10:07:24;;;;;;;9.20;5.44;;;;;;;7.63;64.30;98687.16;2034669;79;20169;-66
2021/04/05 10:10:28;;;;;;;8.81;5.18;;;;;;;7.65;64.43;98695.78;2034961;79;20173;-66
2021/04/05 10:13:33;;;;;;;9.80;5.91;;;;;;;7.68;64.28;98688.00;2034444;79;21432;-66
2021/04/05 10:16:53;;;;;;;13.61;6.80;;;;;;;7.65;64.31;98693.19;2036712;77;22615;-66
2021/04/05 10:19:57;;;;;;;12.70;6.53;;;;;;;7.58;64.54;98687.19;2040373;79;20168;-66
2021/04/05 10:23:06;;;;;;;9.13;5.71;;;;;;;7.59;65.03;98685.47;2040889;79;20202;-66
2021/04/05 10:26:09;;;;;;;11.49;5.18;;;;;;;7.60;64.98;98688.91;2040757;79;20184;-66
2021/04/05 10:29:14;;;;;;;10.54;5.54;;;;;;;7.63;65.71;98691.47;2039371;79;20202;-66
2021/04/05 10:32:22;;;;;;;11.59;7.03;;;;;;;7.54;65.37;98687.19;2039168;76;21490;-67
2021/04/05 10:35:25;;;;;;;13.41;6.70;;;;;;;7.47;65.58;98688.94;2039183;79;20204;-66
2021/04/05 10:38:28;;;;;;;10.44;5.55;;;;;;;7.46;65.73;98683.78;2043033;79;20186;-66
2021/04/05 10:41:32;;;;;;;9.93;5.71;;;;;;;7.33;66.05;98672.63;2039722;79;20197;-66
2021/04/05 10:44:39;;;;;;;11.04;6.60;;;;;;;7.31;66.26;98676.94;2040132;79;20858;-66
2021/04/05 10:47:50;;;;;;;12.88;5.71;;;;;;;7.19;66.72;98679.56;2033351;77;20331;-66
2021/04/05 10:51:02;;;;;;;14.63;7.54;;;;;;;7.14;67.14;98689.88;2033572;79;20180;-66
2021/04/05 10:54:37;;;;;;;15.96;8.32;;;;;;;6.97;67.45;98689.06;2033346;79;20364;-65
2021/04/05 10:57:42;;;;;;;12.57;5.82;;;;;;;6.89;68.04;98688.22;2033786;79;20320;-66
2021/04/05 11:00:50;;;;;;;10.60;6.51;;;;;;;6.84;68.35;98680.50;2036913;77;55238;-66
2021/04/05 11:03:54;;;;;;;12.11;6.57;;;;;;;6.85;68.81;98682.22;2037888;79;20335;-66
2021/04/05 11:06:57;;;;;;;12.19;6.53;;;;;;;6.81;69.05;98685.63;2038429;79;20382;-65
2021/04/05 11:10:01;;;;;;;12.29;7.18;;;;;;;6.76;69.93;98687.38;2038449;79;20319;-65
2021/04/05 11:13:09;;;;;;;13.52;7.09;;;;;;;6.69;70.38;98689.97;2038777;79;20323;-66
2021/04/05 11:16:13;;;;;;;10.47;6.48;;;;;;;6.65;70.86;98684.81;2035333;76;20424;-65
2021/04/05 11:19:24;;;;;;;16.76;7.26;;;;;;;6.61;71.59;98688.22;2035822;79;20215;-66
2021/04/05 11:22:28;;;;;;;15.41;8.25;;;;;;;6.59;72.10;98682.22;2036046;79;20893;-65
2021/04/05 11:25:35;;;;;;;13.31;7.76;;;;;;;6.56;72.65;98678.78;2035720;79;20309;-65
2021/04/05 11:28:40;;;;;;;12.27;7.39;;;;;;;6.48;73.66;98683.09;2034315;79;21440;-66
2021/04/05 11:31:44;;;;;;;15.75;9.51;;;;;;;6.42;74.64;98671.03;2033099;77;20465;-66
2021/04/05 11:34:53;;;;;;;12.34;8.09;;;;;;;6.41;75.18;98668.44;2033037;79;20336;-66
2021/04/05 11:38:03;;;;;;;15.47;8.27;;;;;;;6.39;75.19;98665.88;2034079;79;20312;-66
2021/04/05 11:41:06;;;;;;;13.91;7.85;;;;;;;6.38;75.31;98666.72;2033446;79;20165;-66
2021/04/05 11:44:10;;;;;;;15.46;9.01;;;;;;;6.39;75.73;98665.00;2032812;79;20309;-66
2021/04/05 11:47:13;;;;;;;14.49;8.02;;;;;;;6.37;75.34;98652.13;2036806;77;21543;-66
2021/04/05 11:50:17;;;;;;;12.51;7.94;;;;;;;6.38;75.08;98664.16;2039253;79;21234;-65
2021/04/05 11:53:26;;;;;;;15.07;8.59;;;;;;;6.38;75.25;98669.31;2039018;79;20341;-65
2021/04/05 11:56:33;;;;;;;17.42;8.06;;;;;;;6.44;75.14;98652.97;2040139;79;20304;-66
2021/04/05 11:59:44;;;;;;;15.31;9.01;;;;;;;6.47;74.92;98650.41;2041404;79;20184;-66
2021/04/05 12:03:07;;;;;;;12.48;8.82;;;;;;;6.55;74.89;98643.53;2040637;77;21332;-66
2021/04/05 12:06:20;;;;;;;14.49;9.10;;;;;;;6.58;74.81;98641.81;2040398;79;20341;-66
2021/04/05 12:09:28;;;;;;;19.10;9.44;;;;;;;6.59;74.99;98635.78;2040837;79;20366;-65
2021/04/05 12:12:44;;;;;;;13.52;8.48;;;;;;;6.64;75.14;98643.50;2041135;79;20333;-66
2021/04/05 12:15:47;;;;;;;13.01;7.89;;;;;;;6.62;74.82;98635.78;2037312;76;20617;-66
2021/04/05 12:18:54;;;;;;;13.70;8.99;;;;;;;6.63;74.86;98641.78;2035137;79;20325;-66
2021/04/05 12:21:56;;;;;;;14.13;7.88;;;;;;;6.61;75.51;98644.38;2035737;79;20338;-66
2021/04/05 12:25:02;;;;;;;11.59;7.72;;;;;;;6.63;75.79;98647.81;2035373;79;20362;-66
2021/04/05 12:28:06;;;;;;;14.44;10.14;;;;;;;6.56;76.62;98659.00;2035342;79;20793;-66
2021/04/05 12:31:09;;;;;;;10.46;7.45;;;;;;;6.50;77.36;98658.16;2034197;79;20320;-67
2021/04/05 12:34:33;;;;;;;9.48;7.10;;;;;;;6.53;78.27;98651.28;2034617;79;21088;-66
2021/04/05 12:37:35;;;;;;;10.65;6.99;;;;;;;6.50;78.78;98653.84;2035227;79;20201;-66
2021/04/05 12:40:39;;;;;;;12.25;8.27;;;;;;;6.49;79.54;98659.88;2034195;79;20434;-66
2021/04/05 12:43:42;;;;;;;12.19;7.40;;;;;;;6.55;79.77;98665.03;2034431;79;20331;-67
2021/04/05 12:46:50;;;;;;;11.71;7.18;;;;;;;6.53;79.61;98663.31;2034033;77;20344;-67
2021/04/05 12:49:52;;;;;;;10.61;7.20;;;;;;;6.56;79.81;98665.88;2034879;79;20401;-67
2021/04/05 12:53:00;;;;;;;13.52;7.96;;;;;;;6.56;80.14;98671.03;2035127;79;20188;-67
2021/04/05 12:56:04;;;;;;;8.05;5.35;;;;;;;6.53;79.90;98666.75;2034741;79;20358;-66
2021/04/05 12:59:05;;;;;;;7.71;5.36;;;;;;;6.49;80.00;98659.00;2034474;79;20791;-66
2021/04/05 13:02:10;;;;;;;5.93;5.05;;;;;;;6.47;80.31;98674.50;2037760;77;20332;-67
2021/04/05 13:05:31;;;;;;;6.49;4.71;;;;;;;6.44;80.41;98668.44;2040457;79;20352;-67
2021/04/05 13:08:51;;;;;;;5.01;4.30;;;;;;;6.42;80.73;98671.03;2039992;79;20323;-68
2021/04/05 13:12:04;;;;;;;5.31;4.65;;;;;;;6.49;80.77;98666.75;2040163;79;20761;-67
2021/04/05 13:15:32;;;;;;;4.55;4.00;;;;;;;6.56;80.79;98665.88;2039412;79;20308;-68
2021/04/05 13:18:48;;;;;;;3.58;3.03;;;;;;;6.61;80.87;98674.47;2039249;79;20319;-68
2021/04/05 13:21:52;;;;;;;2.99;2.16;;;;;;;6.62;80.61;98687.34;2040466;79;20346;-67
2021/04/05 13:25:01;;;;;;;1.77;1.66;;;;;;;6.56;79.21;98683.94;2039659;79;20899;-67
2021/04/05 13:28:04;;;;;;;2.17;1.97;;;;;;;6.51;78.75;98694.25;2040161;79;20333;-67
2021/04/05 13:31:08;;;;;;;1.11;1.01;;;;;;;6.44;78.60;98699.38;2037848;79;25000;-66
2021/04/05 13:34:11;;;;;;;0.70;0.70;;;;;;;6.40;77.99;98713.16;2034539;79;20329;-67
2021/04/05 13:37:15;;;;;;;0.51;0.40;;;;;;;6.26;75.92;98726.88;2034498;79;20354;-67
2021/04/05 13:40:26;;;;;;;0.30;0.30;;;;;;;6.13;74.60;98734.59;2034554;79;20301;-67
2021/04/05 13:43:28;;;;;;;1.21;0.30;;;;;;;5.92;74.86;98748.25;2034592;79;21177;-67
2021/04/05 13:46:30;;;;;;;1.17;0.34;;;;;;;5.77;74.62;98754.19;2036247;77;20367;-67
2021/04/05 13:49:47;;;;;;;0.29;0.29;;;;;;;5.69;73.64;98750.69;2039833;79;20331;-66
2021/04/05 13:52:54;;;;;;;0.80;0.20;;;;;;;5.51;72.84;98769.47;2039824;79;20333;-66
2021/04/05 13:55:57;;;;;;;0.30;0.30;;;;;;;5.44;73.30;98770.31;2039002;79;20319;-66
2021/04/05 13:59:07;;;;;;;0.28;0.28;;;;;;;5.35;72.17;98763.38;2040619;79;20385;-66
2021/04/05 14:02:15;;;;;;;0.60;0.30;;;;;;;5.35;73.00;98777.97;2035605;77;20324;-67
2021/04/05 14:05:19;;;;;;;0.52;0.20;;;;;;;5.28;72.68;98779.66;2038522;79;20321;-66
2021/04/05 14:08:23;;;;;;;0.76;0.20;;;;;;;5.32;74.33;98783.97;2035425;79;20172;-66
2021/04/05 14:11:30;;;;;;;0.35;0.30;;;;;;;5.29;73.11;98808.81;2035594;79;20374;-67
2021/04/05 14:14:37;;;;;;;0.30;0.20;;;;;;;5.27;72.44;98795.09;2035969;79;20363;-67
2021/04/05 14:18:03;;;;;;;0.60;0.30;;;;;;;5.20;71.75;98803.59;2039377;77;23230;-66
2021/04/05 14:21:06;;;;;;;0.52;0.40;;;;;;;5.23;72.39;98809.66;2029269;79;20321;-66
2021/04/05 14:24:23;;;;;;;0.21;0.21;;;;;;;5.12;71.52;98806.97;2040485;79;20428;-66
2021/04/05 14:27:42;;;;;;;0.50;0.30;;;;;;;5.05;70.68;98814.66;2041422;79;20356;-67
2021/04/05 14:30:51;;;;;;;1.36;0.44;;;;;;;5.03;70.77;98813.78;2037551;77;20634;-66
2021/04/05 14:33:59;;;;;;;0.40;0.35;;;;;;;4.97;70.71;98813.72;2035697;79;20297;-66
2021/04/05 14:37:44;;;;;;;0.64;0.43;;;;;;;4.98;71.22;98815.44;2035168;79;20220;-65
2021/04/05 14:40:48;;;;;;;1.31;0.91;;;;;;;4.91;70.10;98834.25;2035533;79;20308;-66
2021/04/05 14:43:55;;;;;;;0.99;0.40;;;;;;;4.90;70.66;98828.22;2033974;79;20748;-66
2021/04/05 14:46:57;;;;;;;1.90;0.56;;;;;;;4.83;67.69;98824.72;2034904;77;21035;-66
2021/04/05 14:50:07;;;;;;;1.74;0.50;;;;;;;4.82;69.35;98822.16;2042786;79;20287;-66
2021/04/05 14:53:12;;;;;;;1.80;0.59;;;;;;;4.80;68.59;98822.13;2040137;79;20359;-66
2021/04/05 14:56:16;;;;;;;0.86;0.60;;;;;;;4.74;68.35;98836.66;2039988;79;20388;-65
2021/04/05 14:59:24;;;;;;;0.95;0.47;;;;;;;4.81;68.00;98834.13;2040168;79;21242;-66